createdAt,value
2018-04-02T00:01:43.698Z,66.10
2018-04-02T00:04:12.018Z,66.65
2018-04-02T00:06:40.354Z,66.65
2018-04-02T00:09:08.774Z,66.63
2018-04-02T00:11:37.118Z,66.49
2018-04-02T00:14:05.438Z,66.49
2018-04-02T00:16:33.777Z,66.74
2018-04-02T00:19:02.099Z,66.93
2018-04-02T00:21:30.433Z,67.05
2018-04-02T00:23:58.782Z,67.25
2018-04-02T00:26:27.121Z,67.92
2018-04-02T00:28:55.450Z,68.31
2018-04-02T00:31:23.762Z,68.23
2018-04-02T00:33:52.105Z,68.04
2018-04-02T00:36:20.422Z,67.48
2018-04-02T00:38:48.758Z,67.30
2018-04-02T00:41:17.077Z,67.23
2018-04-02T00:43:45.414Z,67.30
2018-04-02T00:46:14.050Z,67.37
2018-04-02T00:48:42.390Z,67.18
2018-04-02T00:51:10.710Z,67.23
2018-04-02T00:53:39.053Z,67.20
2018-04-02T00:56:07.380Z,67.00
2018-04-02T00:58:35.723Z,66.90
2018-04-02T01:01:04.041Z,66.86
2018-04-02T01:03:32.382Z,67.06
2018-04-02T01:06:00.710Z,67.00
2018-04-02T01:08:29.046Z,66.73
2018-04-02T01:10:57.366Z,66.88
2018-04-02T01:13:25.710Z,66.93
2018-04-02T01:15:54.026Z,66.71
2018-04-02T01:18:22.370Z,66.85
2018-04-02T01:20:50.762Z,67.00
2018-04-02T01:23:19.098Z,66.64
2018-04-02T01:25:47.414Z,66.64
2018-04-02T01:28:15.758Z,66.69
2018-04-02T01:30:44.074Z,66.71
2018-04-02T01:33:12.415Z,67.03
2018-04-02T01:35:40.734Z,67.03
2018-04-02T01:38:09.074Z,66.95
2018-04-02T01:40:37.393Z,67.07
2018-04-02T01:43:05.733Z,66.97
2018-04-02T01:45:34.049Z,67.04
2018-04-02T01:48:02.390Z,67.17
2018-04-02T01:50:30.710Z,67.40
2018-04-02T01:52:59.050Z,67.54
2018-04-02T01:55:27.374Z,67.53
2018-04-02T01:57:55.714Z,67.50
2018-04-02T02:00:24.029Z,67.35
2018-04-02T02:02:52.374Z,67.08
2018-04-02T02:05:20.694Z,67.27
2018-04-02T02:07:49.035Z,67.22
2018-04-02T02:10:17.402Z,66.97
2018-04-02T02:12:45.749Z,67.14
2018-04-02T02:15:14.072Z,67.11
2018-04-02T02:17:42.408Z,67.21
2018-04-02T02:20:10.726Z,67.35
2018-04-02T02:22:39.066Z,67.30
2018-04-02T02:25:07.386Z,67.96
2018-04-02T02:27:35.734Z,67.33
2018-04-02T02:30:04.058Z,67.01
2018-04-02T02:32:32.367Z,66.63
2018-04-02T02:35:00.752Z,66.25
2018-04-02T02:37:29.027Z,66.02
2018-04-02T02:39:57.367Z,65.98
2018-04-02T02:42:25.690Z,66.00
2018-04-02T02:44:54.030Z,65.88
2018-04-02T02:47:22.342Z,65.58
2018-04-02T02:49:50.683Z,65.46
2018-04-02T02:52:19.006Z,65.54
2018-04-02T02:54:47.363Z,65.43
2018-04-02T02:57:15.688Z,65.25
2018-04-02T02:59:44.031Z,65.12
2018-04-02T03:02:12.381Z,64.86
2018-04-02T03:04:40.726Z,65.01
2018-04-02T03:07:09.043Z,65.21
2018-04-02T03:09:37.407Z,65.11
2018-04-02T03:12:05.805Z,65.04
2018-04-02T03:14:34.182Z,64.96
2018-04-02T03:17:02.512Z,65.15
2018-04-02T03:19:30.937Z,65.22
2018-04-02T03:21:59.263Z,65.33
2018-04-02T03:24:27.610Z,65.33
2018-04-02T03:26:55.961Z,65.21
2018-04-02T03:29:24.306Z,65.20
2018-04-02T03:31:52.629Z,65.16
2018-04-02T03:34:20.970Z,65.19
2018-04-02T03:36:49.298Z,65.25
2018-04-02T03:39:17.637Z,65.29
2018-04-02T03:41:45.962Z,65.41
2018-04-02T03:44:14.404Z,65.46
2018-04-02T03:46:42.721Z,65.57
2018-04-02T03:49:11.062Z,66.29
2018-04-02T03:51:39.386Z,66.73
2018-04-02T03:54:07.729Z,66.66
2018-04-02T03:56:36.050Z,66.54
2018-04-02T03:59:04.390Z,66.55
2018-04-02T04:01:32.738Z,66.77
2018-04-02T04:04:01.083Z,66.77
2018-04-02T04:06:29.490Z,66.76
2018-04-02T04:08:57.829Z,66.73
2018-04-02T04:11:26.151Z,66.85
2018-04-02T04:13:54.493Z,67.01
2018-04-02T04:16:22.810Z,67.02
2018-04-02T04:18:51.156Z,67.01
2018-04-02T04:21:19.550Z,66.97
2018-04-02T04:23:47.893Z,66.89
2018-04-02T04:26:16.214Z,66.96
2018-04-02T04:28:44.581Z,67.01
2018-04-02T04:31:12.900Z,67.07
2018-04-02T04:33:41.213Z,67.20
2018-04-02T04:36:09.559Z,67.23
2018-04-02T04:38:37.921Z,67.34
2018-04-02T04:41:06.358Z,67.38
2018-04-02T04:43:34.677Z,67.46
2018-04-02T04:46:03.019Z,67.48
2018-04-02T04:48:31.337Z,67.53
2018-04-02T04:50:59.685Z,67.58
2018-04-02T04:53:28.047Z,67.62
2018-04-02T04:55:56.390Z,67.67
2018-04-02T04:58:24.794Z,67.75
2018-04-02T05:00:53.134Z,67.83
2018-04-02T05:03:21.554Z,67.95
2018-04-02T05:05:49.926Z,68.25
2018-04-02T05:08:18.250Z,68.74
2018-04-02T05:10:46.685Z,68.77
2018-04-02T05:13:15.003Z,68.57
2018-04-02T05:15:43.337Z,68.71
2018-04-02T05:18:11.658Z,68.83
2018-04-02T05:20:40.095Z,69.04
2018-04-02T05:23:08.469Z,69.05
2018-04-02T05:25:36.901Z,68.92
2018-04-02T05:28:05.203Z,69.12
2018-04-02T05:30:33.547Z,69.48
2018-04-02T05:33:01.882Z,69.55
2018-04-02T05:35:30.223Z,69.46
2018-04-02T05:37:58.533Z,69.07
2018-04-02T05:40:26.906Z,69.35
2018-04-02T05:42:55.328Z,69.35
2018-04-02T05:45:23.655Z,69.40
2018-04-02T05:47:52.039Z,69.29
2018-04-02T05:50:20.414Z,69.25
2018-04-02T05:52:48.729Z,69.19
2018-04-02T05:55:17.080Z,69.29
2018-04-02T05:57:45.399Z,69.38
2018-04-02T06:00:13.738Z,69.39
2018-04-02T06:02:42.058Z,69.29
2018-04-02T06:05:10.403Z,69.41
2018-04-02T06:07:38.750Z,69.58
2018-04-02T06:10:07.082Z,69.38
2018-04-02T06:12:35.507Z,69.23
2018-04-02T06:15:03.882Z,69.23
2018-04-02T06:17:32.258Z,69.42
2018-04-02T06:20:00.594Z,69.62
2018-04-02T06:22:28.967Z,69.76
2018-04-02T06:24:57.286Z,69.74
2018-04-02T06:27:25.605Z,69.62
2018-04-02T06:29:54.049Z,69.46
2018-04-02T06:32:22.366Z,69.26
2018-04-02T06:34:50.690Z,69.21
2018-04-02T06:37:19.029Z,69.07
2018-04-02T06:39:47.451Z,69.00
2018-04-02T06:42:15.826Z,68.67
2018-04-02T06:44:44.141Z,68.63
2018-04-02T06:47:12.486Z,68.73
2018-04-02T06:49:40.910Z,68.72
2018-04-02T06:52:09.237Z,68.69
2018-04-02T06:54:37.556Z,68.72
2018-04-02T06:57:05.990Z,68.42
2018-04-02T06:59:34.315Z,68.13
2018-04-02T07:02:02.654Z,68.20
2018-04-02T07:04:31.033Z,67.95
2018-04-02T07:06:59.326Z,68.12
2018-04-02T07:09:27.654Z,68.09
2018-04-02T07:11:56.050Z,68.02
2018-04-02T07:14:24.321Z,67.29
2018-04-02T07:16:52.662Z,67.00
2018-04-02T07:19:20.982Z,67.06
2018-04-02T07:21:49.370Z,66.89
2018-04-02T07:24:17.738Z,66.62
2018-04-02T07:26:46.086Z,66.66
2018-04-02T07:29:14.410Z,66.14
2018-04-02T07:31:42.761Z,66.17
2018-04-02T07:34:11.149Z,66.29
2018-04-02T07:36:39.514Z,65.72
2018-04-02T07:39:07.841Z,65.61
2018-04-02T07:41:36.185Z,65.79
2018-04-02T07:44:04.541Z,65.91
2018-04-02T07:46:33.821Z,65.69
2018-04-02T07:49:02.155Z,65.98
2018-04-02T07:51:30.498Z,66.11
2018-04-02T07:53:58.826Z,65.84
2018-04-02T07:56:28.069Z,65.73
2018-04-02T07:58:56.398Z,65.61
2018-04-02T08:01:24.749Z,65.72
2018-04-02T08:03:53.098Z,65.40
2018-04-02T08:06:21.442Z,65.76
2018-04-02T08:08:49.772Z,67.56
2018-04-02T08:11:18.151Z,64.78
2018-04-02T08:13:46.514Z,65.02
2018-04-02T08:16:14.866Z,65.88
2018-04-02T08:18:43.189Z,66.26
2018-04-02T08:21:11.534Z,66.34
2018-04-02T08:23:39.870Z,65.78
2018-04-02T08:26:08.221Z,65.45
2018-04-02T08:28:36.558Z,65.28
2018-04-02T08:31:04.942Z,65.02
2018-04-02T08:33:33.278Z,64.58
2018-04-02T08:36:01.697Z,63.56
2018-04-02T08:38:30.079Z,63.38
2018-04-02T08:40:58.415Z,64.41
2018-04-02T08:43:26.780Z,63.86
2018-04-02T08:45:55.111Z,64.19
2018-04-02T08:48:24.054Z,64.06
2018-04-02T08:50:52.378Z,64.30
2018-04-02T08:53:20.738Z,64.50
2018-04-02T08:55:49.083Z,64.64
2018-04-02T08:58:17.437Z,64.31
2018-04-02T09:00:45.854Z,64.54
2018-04-02T09:03:14.180Z,64.63
2018-04-02T09:05:42.514Z,64.85
2018-04-02T09:08:11.694Z,65.25
2018-04-02T09:10:40.030Z,65.13
2018-04-02T09:13:08.381Z,65.05
2018-04-02T09:15:36.730Z,64.66
2018-04-02T09:18:05.091Z,64.63
2018-04-02T09:20:33.430Z,64.39
2018-04-02T09:23:01.799Z,64.65
2018-04-02T09:25:30.134Z,64.34
2018-04-02T09:27:58.494Z,64.53
2018-04-02T09:30:26.825Z,64.35
2018-04-02T09:32:55.184Z,63.69
2018-04-02T09:35:23.522Z,62.49
2018-04-02T09:37:51.958Z,62.73
2018-04-02T09:40:20.293Z,62.66
2018-04-02T09:42:48.641Z,62.75
2018-04-02T09:45:17.077Z,62.53
2018-04-02T09:47:45.472Z,61.46
2018-04-02T09:50:13.844Z,61.34
2018-04-02T09:52:42.198Z,61.24
2018-04-02T09:55:11.570Z,61.11
2018-04-02T09:57:39.922Z,61.66
2018-04-02T10:00:08.258Z,61.78
2018-04-02T10:02:36.631Z,61.68
2018-04-02T10:05:06.045Z,61.37
2018-04-02T10:07:34.260Z,60.04
2018-04-02T10:10:02.772Z,59.85
2018-04-02T10:12:31.059Z,60.26
2018-04-02T10:14:59.395Z,59.02
2018-04-02T10:17:27.834Z,58.32
2018-04-02T10:19:56.176Z,58.51
2018-04-02T10:22:24.554Z,59.29
2018-04-02T10:24:52.885Z,59.57
2018-04-02T10:27:21.347Z,60.42
2018-04-02T10:29:49.754Z,60.01
2018-04-02T10:32:18.039Z,60.15
2018-04-02T10:34:46.381Z,58.29
2018-04-02T10:37:14.771Z,58.50
2018-04-02T10:39:43.111Z,58.44
2018-04-02T10:42:11.446Z,57.78
2018-04-02T10:44:39.874Z,58.80
2018-04-02T10:47:08.250Z,58.67
2018-04-02T10:49:36.603Z,56.90
2018-04-02T10:52:04.933Z,56.58
2018-04-02T10:54:33.281Z,56.60
2018-04-02T10:57:01.617Z,57.80
2018-04-02T10:59:30.002Z,57.66
2018-04-02T11:01:58.422Z,58.46
2018-04-02T11:04:26.777Z,58.67
2018-04-02T11:06:55.118Z,60.29
2018-04-02T11:09:23.472Z,58.71
2018-04-02T11:11:51.810Z,57.51
2018-04-02T11:14:20.196Z,57.05
2018-04-02T11:16:48.514Z,56.74
2018-04-02T11:19:16.966Z,57.41
2018-04-02T11:21:45.348Z,57.58
2018-04-02T11:24:13.694Z,56.80
2018-04-02T11:26:42.097Z,56.72
2018-04-02T11:29:10.444Z,56.57
2018-04-02T11:31:38.774Z,56.82
2018-04-02T11:34:07.127Z,56.95
2018-04-02T11:36:36.418Z,55.91
2018-04-02T11:39:05.626Z,58.53
2018-04-02T11:41:33.978Z,55.84
2018-04-02T11:44:02.376Z,55.24
2018-04-02T11:46:31.670Z,55.16
2018-04-02T11:49:00.025Z,54.15
2018-04-02T11:51:28.353Z,54.69
2018-04-02T11:53:56.697Z,53.31
2018-04-02T11:56:25.981Z,53.75
2018-04-02T11:58:54.381Z,53.99
2018-04-02T12:01:22.710Z,54.15
2018-04-02T12:03:51.055Z,54.40
2018-04-02T12:06:20.289Z,54.88
2018-04-02T12:08:48.670Z,53.86
2018-04-02T12:11:17.022Z,53.71
2018-04-02T12:13:45.369Z,52.65
2018-04-02T12:16:13.729Z,52.67
2018-04-02T12:18:42.087Z,50.67
2018-04-02T12:21:10.414Z,51.09
2018-04-02T12:23:38.762Z,52.44
2018-04-02T12:26:07.147Z,53.13
2018-04-02T12:28:35.494Z,53.11
2018-04-02T12:31:03.826Z,53.09
2018-04-02T12:33:32.288Z,51.73
2018-04-02T12:36:00.606Z,52.61
2018-04-02T12:38:29.026Z,52.76
2018-04-02T12:40:57.362Z,52.78
2018-04-02T12:43:25.777Z,52.04
2018-04-02T12:45:54.109Z,51.94
2018-04-02T12:48:22.443Z,51.63
2018-04-02T12:50:50.786Z,51.62
2018-04-02T12:53:19.146Z,51.43
2018-04-02T12:55:47.494Z,51.32
2018-04-02T12:58:15.823Z,51.76
2018-04-02T13:00:44.174Z,51.82
2018-04-02T13:03:12.614Z,52.05
2018-04-02T13:05:40.946Z,51.26
2018-04-02T13:08:09.273Z,50.77
2018-04-02T13:10:37.745Z,49.87
2018-04-02T13:13:06.003Z,50.47
2018-04-02T13:15:48.298Z,50.19
2018-04-02T13:18:17.915Z,50.35
2018-04-02T13:20:46.270Z,50.17
2018-04-02T13:23:14.599Z,50.62
2018-04-02T13:25:42.950Z,50.11
2018-04-02T13:28:11.283Z,50.56
2018-04-02T13:30:39.707Z,50.48
2018-04-02T13:33:08.023Z,49.79
2018-04-02T13:35:36.370Z,49.96
2018-04-02T13:38:04.698Z,49.73
2018-04-02T13:40:33.098Z,49.45
2018-04-02T13:43:01.431Z,49.86
2018-04-02T13:45:29.782Z,50.32
2018-04-02T13:47:58.106Z,49.37
2018-04-02T13:50:26.459Z,49.61
2018-04-02T13:52:55.121Z,49.02
2018-04-02T13:55:23.556Z,49.69
2018-04-02T13:57:51.960Z,48.38
2018-04-02T14:00:20.258Z,49.40
2018-04-02T14:02:48.603Z,49.40
2018-04-02T14:05:16.946Z,49.14
2018-04-02T14:07:45.278Z,49.31
2018-04-02T14:10:13.629Z,49.86
2018-04-02T14:12:41.966Z,49.78
2018-04-02T14:15:10.319Z,50.01
2018-04-02T14:17:38.647Z,50.29
2018-04-02T14:20:07.000Z,49.89
2018-04-02T14:22:35.326Z,49.86
2018-04-02T14:25:03.692Z,49.54
2018-04-02T14:27:32.064Z,49.99
2018-04-02T14:30:00.415Z,50.29
2018-04-02T14:32:28.753Z,49.31
2018-04-02T14:34:57.124Z,48.62
2018-04-02T14:37:45.026Z,49.33
2018-04-02T14:40:19.329Z,49.59
2018-04-02T14:45:30.939Z,49.17
2018-04-02T14:48:04.354Z,49.98
2018-04-02T14:50:40.961Z,50.20
2018-04-02T14:53:09.550Z,50.67
2018-04-02T14:55:37.953Z,51.11
2018-04-02T14:58:06.283Z,50.50
2018-04-02T15:00:34.637Z,50.36
2018-04-02T15:03:02.987Z,50.37
2018-04-02T15:05:31.345Z,50.12
2018-04-02T15:07:59.665Z,50.86
2018-04-02T15:10:28.042Z,50.51
2018-04-02T15:12:56.565Z,50.57
2018-04-02T15:15:25.072Z,50.76
2018-04-02T15:17:53.490Z,51.05
2018-04-02T15:20:21.850Z,51.26
2018-04-02T15:22:50.201Z,51.35
2018-04-02T15:25:19.381Z,51.52
2018-04-02T15:27:47.718Z,51.87
2018-04-02T15:30:16.070Z,51.33
2018-04-02T15:32:44.394Z,50.94
2018-04-02T15:35:12.746Z,50.95
2018-04-02T15:37:41.074Z,50.79
2018-04-02T15:40:09.442Z,50.66
2018-04-02T15:42:37.780Z,50.21
2018-04-02T15:45:06.111Z,50.55
2018-04-02T15:47:34.457Z,50.85
2018-04-02T15:50:02.831Z,50.68
2018-04-02T15:52:31.380Z,50.43
2018-04-02T15:54:59.769Z,50.33
2018-04-02T15:57:28.127Z,50.40
2018-04-02T15:59:56.454Z,50.69
2018-04-02T16:02:24.815Z,50.58
2018-04-02T16:04:53.137Z,50.20
2018-04-02T16:07:21.492Z,50.19
2018-04-02T16:09:49.846Z,50.00
2018-04-02T16:12:18.242Z,49.48
2018-04-02T16:14:46.579Z,49.70
2018-04-02T16:17:14.935Z,49.81
2018-04-02T16:19:43.272Z,49.65
2018-04-02T16:22:11.631Z,49.88
2018-04-02T16:24:40.019Z,50.19
2018-04-02T16:27:08.366Z,50.02
2018-04-02T16:29:36.702Z,50.32
2018-04-02T16:32:05.055Z,50.38
2018-04-02T16:34:33.381Z,50.19
2018-04-02T16:37:01.864Z,50.13
2018-04-02T16:39:30.242Z,50.17
2018-04-02T16:41:58.893Z,50.29
2018-04-02T16:44:27.602Z,50.42
2018-04-02T16:46:56.890Z,50.42
2018-04-02T16:49:25.222Z,50.49
2018-04-02T16:51:53.574Z,50.21
2018-04-02T16:54:21.915Z,50.45
2018-04-02T16:56:51.262Z,50.38
2018-04-02T16:59:19.594Z,49.92
2018-04-02T17:01:47.938Z,49.83
2018-04-02T17:04:16.271Z,49.94
2018-04-02T17:06:44.623Z,50.11
2018-04-02T17:09:12.949Z,50.26
2018-04-02T17:11:41.298Z,50.52
2018-04-02T17:14:09.642Z,50.89
2018-04-02T17:16:37.978Z,50.64
2018-04-02T17:19:06.405Z,50.98
2018-04-02T17:21:34.815Z,50.83
2018-04-02T17:24:03.193Z,50.73
2018-04-02T17:26:32.634Z,50.79
2018-04-02T17:29:00.966Z,51.01
2018-04-02T17:31:29.315Z,51.25
2018-04-02T17:33:57.650Z,51.12
2018-04-02T17:36:26.918Z,51.12
2018-04-02T17:38:55.269Z,51.02
2018-04-02T17:41:23.615Z,50.85
2018-04-02T17:43:51.942Z,50.97
2018-04-02T17:46:20.334Z,51.25
2018-04-02T17:48:48.677Z,51.47
2018-04-02T17:51:17.010Z,51.66
2018-04-02T17:53:45.351Z,51.76
2018-04-02T17:56:13.737Z,51.58
2018-04-02T17:58:42.022Z,51.96
2018-04-02T18:01:10.363Z,51.99
2018-04-02T18:03:38.710Z,51.71
2018-04-02T18:06:07.042Z,51.76
2018-04-02T18:08:35.438Z,51.83
2018-04-02T18:11:03.766Z,52.14
2018-04-02T18:13:32.122Z,52.19
2018-04-02T18:16:00.586Z,52.20
2018-04-02T18:18:28.936Z,52.49
2018-04-02T18:20:57.262Z,52.47
2018-04-02T18:23:25.611Z,52.76
2018-04-02T18:25:53.983Z,52.81
2018-04-02T18:28:22.331Z,53.16
2018-04-02T18:30:50.680Z,52.94
2018-04-02T18:33:19.027Z,52.96
2018-04-02T18:35:47.452Z,52.67
2018-04-02T18:38:15.829Z,52.82
2018-04-02T18:40:44.100Z,53.06
2018-04-02T18:43:12.442Z,53.11
2018-04-02T18:45:40.803Z,53.22
2018-04-02T18:48:09.173Z,53.25
2018-04-02T18:50:37.494Z,53.29
2018-04-02T18:53:05.846Z,53.12
2018-04-02T18:55:34.178Z,53.23
2018-04-02T18:58:02.527Z,53.52
2018-04-02T19:00:30.846Z,53.43
2018-04-02T19:02:59.194Z,54.14
2018-04-02T19:05:27.607Z,54.27
2018-04-02T19:07:55.957Z,54.06
2018-04-02T19:10:24.277Z,53.96
2018-04-02T19:12:53.786Z,53.78
2018-04-02T19:15:23.358Z,53.62
2018-04-02T19:17:51.714Z,53.84
2018-04-02T19:20:22.557Z,53.55
2018-04-02T19:22:50.843Z,53.72
2018-04-02T19:25:19.167Z,53.60
2018-04-02T19:27:47.515Z,53.40
2018-04-02T19:30:15.839Z,53.53
2018-04-02T19:32:44.181Z,53.36
2018-04-02T19:35:12.508Z,53.14
2018-04-02T19:37:40.849Z,53.06
2018-04-02T19:40:09.872Z,53.39
2018-04-02T19:42:38.221Z,52.76
2018-04-02T19:45:06.538Z,53.00
2018-04-02T19:47:34.889Z,52.55
2018-04-02T19:50:03.211Z,53.62
2018-04-02T19:52:31.570Z,54.00
2018-04-02T19:54:59.887Z,54.33
2018-04-02T19:57:28.206Z,54.76
2018-04-02T19:59:56.713Z,55.20
2018-04-02T20:02:25.366Z,55.58
2018-04-02T20:04:53.706Z,55.37
2018-04-02T20:07:22.027Z,55.93
2018-04-02T20:09:50.367Z,55.98
2018-04-02T20:12:18.715Z,56.00
2018-04-02T20:14:47.070Z,55.98
2018-04-02T20:17:15.394Z,56.17
2018-04-02T20:19:44.225Z,55.79
2018-04-02T20:22:12.546Z,56.05
2018-04-02T20:24:40.891Z,55.01
2018-04-02T20:27:09.202Z,55.13
2018-04-02T20:29:37.671Z,55.48
2018-04-02T20:32:05.981Z,55.58
2018-04-02T20:34:34.433Z,55.44
2018-04-02T20:37:02.802Z,55.41
2018-04-02T20:39:31.309Z,55.25
2018-04-02T20:41:59.634Z,55.23
2018-04-02T20:44:28.022Z,55.49
2018-04-02T20:46:56.339Z,55.54
2018-04-02T20:49:24.690Z,55.55
2018-04-02T20:51:53.102Z,55.78
2018-04-02T20:54:21.453Z,57.03
2018-04-02T20:56:50.662Z,58.05
2018-04-02T20:59:19.000Z,59.22
2018-04-02T21:01:47.312Z,59.60
2018-04-02T21:04:15.655Z,60.83
2018-04-02T21:06:44.990Z,61.52
2018-04-02T21:09:13.318Z,62.09
2018-04-02T21:11:41.630Z,62.17
2018-04-02T21:14:09.973Z,62.30
2018-04-02T21:16:38.286Z,63.05
2018-04-02T21:19:07.554Z,63.60
2018-04-02T21:21:35.870Z,63.31
2018-04-02T21:24:04.214Z,63.53
2018-04-02T21:26:32.529Z,63.63
2018-04-02T21:29:02.463Z,63.37
2018-04-02T21:31:30.794Z,63.86
2018-04-02T21:33:59.138Z,63.94
2018-04-02T21:36:27.458Z,64.24
2018-04-02T21:38:56.008Z,64.30
2018-04-02T21:41:24.326Z,64.16
2018-04-02T21:43:52.671Z,64.40
2018-04-02T21:46:21.962Z,64.67
2018-04-02T21:48:50.351Z,65.21
2018-04-02T21:51:18.666Z,64.99
2018-04-02T21:53:47.009Z,64.48
2018-04-02T21:56:15.345Z,64.94
2018-04-02T21:58:43.678Z,65.30
2018-04-02T22:01:12.003Z,65.53
2018-04-02T22:03:40.313Z,65.77
2018-04-02T22:09:03.856Z,67.18
2018-04-02T22:11:32.174Z,66.75
2018-04-02T22:14:00.526Z,66.34
2018-04-02T22:16:29.641Z,66.24
2018-04-02T22:18:57.974Z,65.98
2018-04-02T22:21:26.291Z,65.94
2018-04-02T22:23:54.644Z,66.50
2018-04-02T22:26:23.946Z,66.80
2018-04-02T22:28:52.267Z,67.50
2018-04-02T22:31:20.606Z,67.55
2018-04-02T22:33:48.926Z,67.87
2018-04-02T22:36:17.351Z,67.94
2018-04-02T22:38:45.729Z,67.87
2018-04-02T22:41:14.070Z,67.72
2018-04-02T22:43:42.382Z,67.86
2018-04-02T22:46:10.724Z,68.18
2018-04-02T22:48:39.042Z,68.04
2018-04-02T22:51:07.389Z,68.03
2018-04-02T22:53:35.710Z,67.89
2018-04-02T22:56:04.051Z,68.24
2018-04-02T22:58:32.365Z,67.75
2018-04-02T23:01:00.702Z,67.71
2018-04-02T23:03:29.019Z,67.62
2018-04-02T23:05:57.357Z,67.60
2018-04-02T23:08:25.687Z,67.32
2018-04-02T23:10:54.906Z,67.72
2018-04-02T23:13:23.230Z,67.57
2018-04-02T23:15:51.576Z,67.77
2018-04-02T23:18:19.894Z,68.35
2018-04-02T23:20:48.243Z,68.88
2018-04-02T23:23:16.567Z,69.35
2018-04-02T23:25:44.904Z,70.27
2018-04-02T23:28:13.221Z,70.59
2018-04-02T23:30:41.562Z,70.76
2018-04-02T23:33:09.890Z,71.54
2018-04-02T23:35:38.236Z,71.73
2018-04-02T23:38:06.553Z,71.78
2018-04-02T23:40:34.895Z,72.00
2018-04-02T23:43:03.215Z,71.89
2018-04-02T23:45:31.558Z,72.01
2018-04-02T23:47:59.877Z,72.32
2018-04-02T23:50:28.209Z,72.59
2018-04-02T23:52:56.534Z,72.77
2018-04-02T23:55:24.878Z,73.38
2018-04-02T23:57:53.198Z,73.46
